Impacts METAR Board
IDs:

KIAH - Houston/Bush Intl, TX, US

Updated at: 1500 UTC 26 Apr 2018
Potential Impact None Slight Moderate High
Time 26/03Z 26/04Z 26/05Z 26/06Z 26/07Z 26/08Z 26/09Z 26/10Z 26/11Z 26/12Z 26/13Z 26/14Z 26/15Z
Temp70 67 65 63 61 60 59 57 55 54 56 59 63
Dewpt56 53 53 54 54 53 51 49 48 49 50 48 47
Altim30.02 30.02 30.03 30.03 30.02 30.02 30.03 30.03 30.02 30.03 30.05 30.05 30.05
VIS10 10 10 10 10 10 10 10 10 10 10 10 10
CIG170 180 200 120 -- 110 20 65 -- -- -- -- --
CoverOVCOVCBKNBKNSCTBKNBKNBKNSCTFEWFEWFEWFEW
FltCatVFRVFRVFRVFRVFRVFRMVFRVFRVFRVFRVFRVFRVFR
WX--------------------------
WDir330340360350340350340340340340330340350
WSpd16 8 12 8 10 11 12 9 8 6 6 8 10
WGst21 -- -- -- -- -- -- -- -- -- -- -- --
Raw hourly METARs
KIAH 260253Z 33016G21KT 10SM FEW034 SCT085 SCT120 OVC170 21/13 A3002 RMK AO2 SLP165 T02110133 53019
KIAH 260353Z 34008KT 10SM FEW050 SCT120 OVC180 19/12 A3002 RMK AO2 SLP164 T01940117
KIAH 260453Z 36012KT 10SM FEW050 SCT120 BKN200 18/12 A3003 RMK AO2 SLP169 T01830117
KIAH 260553Z 35008KT 10SM FEW050 BKN120 BKN250 17/12 A3003 RMK AO2 SLP168 T01720122 10250 20172 403000156 53003
KIAH 260653Z 34010KT 10SM FEW020 SCT110 16/12 A3002 RMK AO2 SLP167 T01610122
KIAH 260753Z 35011KT 10SM FEW020 SCT070 BKN110 16/12 A3002 RMK AO2 SLP164 T01560117
KIAH 260853Z 34012KT 10SM BKN020 BKN100 15/11 A3003 RMK AO2 SLP167 T01500106 55001
KIAH 260953Z 34009KT 10SM FEW020 BKN065 BKN110 14/09 A3003 RMK AO2 SLP170 T01390094
KIAH 261053Z 34008KT 10SM FEW020 SCT060 SCT100 13/09 A3002 RMK AO2 SLP166 T01280089
KIAH 261153Z 34006KT 10SM FEW060 FEW100 12/09 A3003 RMK AO2 SLP169 T01220094 10172 20122 53002
KIAH 261253Z 33006KT 10SM FEW100 13/10 A3005 RMK AO2 SLP175 T01330100
KIAH 261353Z COR 34008KT 10SM FEW100 15/09 A3005 RMK AO2 SLP176 T01500089
KIAH 261453Z 35010KT 10SM FEW100 17/08 A3005 RMK AO2 SLP177 T01720083 51007



Page loaded:  15:27 UTC  |   08:27 AM Pacific  |   09:27 AM Mountain  |   10:27 AM Central  |   11:27 AM Eastern

 

ADVISORIES

FORECASTS

FORECASTS

OBSERVATIONS

USER TOOLS

ABOUT US